createdAt,value
2019-05-28T00:01:03.717Z,18.60
2019-05-28T00:03:32.306Z,9.00
2019-05-28T00:06:00.873Z,12.13
2019-05-28T00:08:29.627Z,11.07
2019-05-28T00:10:58.127Z,11.43
2019-05-28T00:13:26.572Z,10.63
2019-05-28T00:15:55.114Z,9.07
2019-05-28T00:18:23.682Z,13.97
2019-05-28T00:20:52.199Z,14.40
2019-05-28T00:23:20.699Z,10.60
2019-05-28T00:25:49.352Z,13.90
2019-05-28T00:28:17.867Z,11.73
2019-05-28T00:30:46.341Z,12.17
2019-05-28T00:33:14.922Z,12.93
2019-05-28T00:35:43.384Z,12.57
2019-05-28T00:38:11.869Z,17.37
2019-05-28T00:40:40.398Z,14.47
2019-05-28T00:43:08.947Z,13.67
2019-05-28T00:45:37.463Z,14.07
2019-05-28T00:48:05.912Z,13.83
2019-05-28T00:50:34.429Z,17.50
2019-05-28T00:53:02.886Z,19.47
2019-05-28T00:55:31.351Z,13.17
2019-05-28T00:57:59.983Z,16.33
2019-05-28T01:00:48.738Z,12.67
2019-05-28T01:03:17.574Z,11.57
2019-05-28T01:05:46.136Z,10.00
2019-05-28T01:08:16.505Z,13.97
2019-05-28T01:10:45.325Z,14.87
2019-05-28T01:13:13.894Z,12.77
2019-05-28T01:15:42.439Z,12.17
2019-05-28T01:18:10.953Z,17.27
2019-05-28T01:20:39.401Z,9.27
2019-05-28T01:23:07.874Z,15.17
2019-05-28T01:25:36.478Z,15.30
2019-05-28T01:28:04.894Z,13.47
2019-05-28T01:30:33.474Z,15.80
2019-05-28T01:33:02.092Z,15.33
2019-05-28T01:35:50.076Z,18.77
2019-05-28T01:38:18.553Z,9.27
2019-05-28T01:40:47.049Z,18.27
2019-05-28T01:43:15.623Z,17.17
2019-05-28T01:45:44.157Z,15.23
2019-05-28T01:48:12.674Z,12.93
2019-05-28T01:50:41.131Z,18.77
2019-05-28T01:53:09.735Z,20.90
2019-05-28T01:55:39.331Z,22.30
2019-05-28T01:58:07.897Z,13.27
2019-05-28T02:00:36.449Z,13.53
2019-05-28T02:03:04.920Z,16.37
2019-05-28T02:05:33.456Z,19.13
2019-05-28T02:08:02.035Z,15.23
2019-05-28T02:10:30.624Z,15.53
2019-05-28T02:12:59.104Z,16.20
2019-05-28T02:15:27.577Z,16.93
2019-05-28T02:17:56.046Z,14.20
2019-05-28T02:20:24.674Z,18.17
2019-05-28T02:22:53.207Z,16.20
2019-05-28T02:25:21.792Z,14.33
2019-05-28T02:27:50.286Z,12.20
2019-05-28T02:30:20.096Z,14.60
2019-05-28T02:32:48.570Z,17.23
2019-05-28T02:35:18.640Z,14.27
2019-05-28T02:37:47.070Z,17.90
2019-05-28T02:40:15.594Z,18.43
2019-05-28T02:42:44.282Z,20.87
2019-05-28T02:45:12.970Z,21.20
2019-05-28T02:47:41.601Z,21.00
2019-05-28T02:50:10.136Z,15.90
2019-05-28T02:52:39.144Z,23.07
2019-05-28T02:55:07.988Z,20.40
2019-05-28T02:57:37.370Z,19.27
2019-05-28T03:00:08.281Z,20.23
2019-05-28T03:02:36.958Z,18.60
2019-05-28T03:05:05.946Z,24.17
2019-05-28T03:07:35.045Z,16.13
2019-05-28T03:10:04.824Z,18.67
2019-05-28T03:12:33.409Z,19.20
2019-05-28T03:15:01.895Z,22.60
2019-05-28T03:17:30.478Z,21.33
2019-05-28T03:19:59.627Z,16.00
2019-05-28T03:22:28.244Z,15.27
2019-05-28T03:24:56.725Z,19.37
2019-05-28T03:27:25.167Z,21.33
2019-05-28T03:29:53.713Z,14.43
2019-05-28T03:32:22.318Z,20.60
2019-05-28T03:34:50.866Z,21.43
2019-05-28T03:37:19.509Z,23.83
2019-05-28T03:39:48.155Z,26.03
2019-05-28T03:42:16.571Z,17.00
2019-05-28T03:44:45.080Z,17.93
2019-05-28T03:47:13.691Z,20.07
2019-05-28T03:49:42.126Z,15.87
2019-05-28T03:52:10.650Z,23.17
2019-05-28T03:54:39.154Z,19.23
2019-05-28T03:57:07.590Z,18.17
2019-05-28T03:59:36.131Z,21.87
2019-05-28T04:02:04.627Z,21.93
2019-05-28T04:04:33.233Z,23.57
2019-05-28T04:07:01.716Z,24.20
2019-05-28T04:09:33.748Z,19.43
2019-05-28T04:12:00.398Z,25.80
2019-05-28T04:14:28.995Z,26.67
2019-05-28T04:16:57.545Z,21.80
2019-05-28T04:19:26.170Z,24.70
2019-05-28T04:21:54.702Z,26.00
2019-05-28T04:24:23.198Z,17.40
2019-05-28T04:26:51.666Z,18.80
2019-05-28T04:29:20.379Z,21.90
2019-05-28T04:31:48.883Z,20.00
2019-05-28T04:34:17.408Z,22.07
2019-05-28T04:36:45.967Z,21.70
2019-05-28T04:39:14.451Z,23.07
2019-05-28T04:41:43.027Z,26.77
2019-05-28T04:44:11.510Z,24.27
2019-05-28T04:46:40.000Z,24.10
2019-05-28T04:49:08.587Z,27.03
2019-05-28T04:51:37.061Z,23.13
2019-05-28T04:54:05.548Z,32.00
2019-05-28T04:56:34.053Z,23.33
2019-05-28T04:59:03.977Z,17.77
2019-05-28T05:01:32.700Z,23.67
2019-05-28T05:04:01.399Z,20.87
2019-05-28T05:06:29.812Z,22.60
2019-05-28T05:08:58.257Z,21.43
2019-05-28T05:11:26.826Z,22.80
2019-05-28T05:13:55.254Z,26.87
2019-05-28T05:16:23.734Z,22.60
2019-05-28T05:18:52.218Z,23.90
2019-05-28T05:21:20.916Z,18.80
2019-05-28T05:23:49.546Z,22.93
2019-05-28T05:26:17.986Z,21.70
2019-05-28T05:28:46.437Z,21.73
2019-05-28T05:31:14.985Z,21.30
2019-05-28T05:33:43.497Z,17.77
2019-05-28T05:36:11.978Z,23.43
2019-05-28T05:38:40.474Z,23.20
2019-05-28T05:41:08.925Z,21.10
2019-05-28T05:43:37.415Z,24.37
2019-05-28T05:46:25.324Z,19.43
2019-05-28T05:48:53.884Z,17.83
2019-05-28T05:51:22.611Z,18.70
2019-05-28T05:53:51.138Z,31.23
2019-05-28T05:56:19.690Z,29.70
2019-05-28T05:58:48.228Z,25.23
2019-05-28T06:01:16.851Z,24.43
2019-05-28T06:03:45.274Z,27.13
2019-05-28T06:06:13.875Z,22.20
2019-05-28T06:08:42.325Z,20.63
2019-05-28T06:11:10.775Z,21.00
2019-05-28T06:13:39.275Z,19.77
2019-05-28T06:16:07.706Z,25.63
2019-05-28T06:18:36.151Z,27.40
2019-05-28T06:21:11.720Z,24.20
2019-05-28T06:23:34.897Z,15.43
2019-05-28T06:26:03.387Z,22.87
2019-05-28T06:28:31.928Z,20.27
2019-05-28T06:31:00.407Z,22.03
2019-05-28T06:33:28.890Z,24.20
2019-05-28T06:35:57.476Z,19.50
2019-05-28T06:38:26.819Z,21.33
2019-05-28T06:40:55.307Z,23.90
2019-05-28T06:43:23.847Z,28.63
2019-05-28T06:45:52.380Z,31.17
2019-05-28T06:48:20.902Z,27.07
2019-05-28T06:50:49.335Z,25.20
2019-05-28T06:53:17.880Z,26.53
2019-05-28T06:55:46.376Z,30.83
2019-05-28T06:58:14.973Z,30.90
2019-05-28T07:00:43.604Z,29.93
2019-05-28T07:03:12.111Z,17.27
2019-05-28T07:05:40.698Z,15.73
2019-05-28T07:08:09.315Z,13.83
2019-05-28T07:10:37.796Z,10.07
2019-05-28T07:13:06.355Z,9.70
2019-05-28T07:15:34.837Z,7.33
2019-05-28T07:18:03.385Z,9.77
2019-05-28T07:20:31.819Z,5.03
2019-05-28T07:23:00.367Z,13.73
2019-05-28T07:25:28.970Z,10.50
2019-05-28T07:28:10.419Z,8.37
2019-05-28T07:30:27.834Z,12.23
2019-05-28T07:32:56.514Z,12.17
2019-05-28T07:35:25.062Z,11.90
2019-05-28T07:37:53.582Z,10.53
2019-05-28T07:40:31.738Z,14.77
2019-05-28T07:42:52.742Z,31.27
2019-05-28T07:45:21.252Z,51.50
2019-05-28T07:47:49.777Z,10.67
2019-05-28T07:50:18.546Z,43.97
2019-05-28T07:52:47.031Z,29.30
2019-05-28T07:55:15.620Z,13.27
2019-05-28T07:57:44.261Z,38.17
2019-05-28T08:00:15.982Z,40.30
2019-05-28T08:02:44.686Z,18.83
2019-05-28T08:05:17.167Z,20.07
2019-05-28T08:07:43.333Z,22.20
2019-05-28T08:10:11.899Z,22.80
2019-05-28T08:12:40.504Z,11.60
2019-05-28T08:15:09.071Z,9.40
2019-05-28T08:17:37.852Z,12.80
2019-05-28T08:20:06.323Z,19.77
2019-05-28T08:22:42.194Z,24.67
2019-05-28T08:25:45.577Z,17.07
2019-05-28T08:27:54.557Z,11.23
2019-05-28T08:30:23.134Z,8.90
2019-05-28T08:32:51.664Z,6.63
2019-05-28T08:35:20.191Z,9.00
2019-05-28T08:37:48.744Z,8.23
2019-05-28T08:40:17.466Z,9.20
2019-05-28T08:42:46.056Z,9.77
2019-05-28T08:45:15.011Z,12.17
2019-05-28T08:47:43.471Z,10.57
2019-05-28T08:50:11.897Z,8.70
2019-05-28T08:52:40.476Z,9.47
2019-05-28T08:55:08.974Z,7.83
2019-05-28T08:57:37.999Z,10.23
2019-05-28T09:00:08.913Z,6.97
2019-05-28T09:02:37.388Z,11.27
2019-05-28T09:05:24.589Z,8.50
2019-05-28T09:07:36.665Z,9.87
2019-05-28T09:10:07.023Z,13.10
2019-05-28T09:12:35.532Z,7.73
2019-05-28T09:15:06.111Z,8.37
2019-05-28T09:17:34.722Z,10.87
2019-05-28T09:20:04.219Z,6.50
2019-05-28T09:22:32.663Z,7.27
2019-05-28T09:25:01.443Z,9.30
2019-05-28T09:27:29.951Z,8.53
2019-05-28T09:29:58.605Z,9.60
2019-05-28T09:32:27.090Z,13.43
2019-05-28T09:34:55.692Z,7.87
2019-05-28T09:37:24.224Z,11.67
2019-05-28T09:39:52.716Z,10.37
2019-05-28T09:42:21.314Z,8.53
2019-05-28T09:44:49.826Z,10.00
2019-05-28T09:47:18.402Z,11.57
2019-05-28T09:49:47.032Z,8.47
2019-05-28T09:52:15.531Z,8.17
2019-05-28T09:54:44.043Z,7.70
2019-05-28T09:57:12.538Z,8.03
2019-05-28T09:59:42.140Z,6.27
2019-05-28T10:02:10.931Z,5.30
2019-05-28T10:04:49.368Z,4.80
2019-05-28T10:07:09.684Z,6.57
2019-05-28T10:09:38.259Z,6.10
2019-05-28T10:12:06.804Z,6.20
2019-05-28T10:14:35.398Z,5.80
2019-05-28T10:17:04.084Z,7.70
2019-05-28T10:19:32.711Z,10.50
2019-05-28T10:22:01.291Z,9.17
2019-05-28T10:24:29.787Z,9.50
2019-05-28T10:26:58.234Z,8.73
2019-05-28T10:29:26.883Z,9.60
2019-05-28T10:31:55.345Z,9.37
2019-05-28T10:34:23.919Z,7.27
2019-05-28T10:36:52.460Z,7.33
2019-05-28T10:39:20.988Z,9.10
2019-05-28T10:41:49.467Z,12.03
2019-05-28T10:44:18.003Z,10.07
2019-05-28T10:46:46.536Z,9.23
2019-05-28T10:49:15.056Z,6.63
2019-05-28T10:51:43.570Z,8.00
2019-05-28T10:54:12.298Z,8.63
2019-05-28T10:56:40.912Z,7.70
2019-05-28T10:59:09.425Z,7.40
2019-05-28T11:01:38.117Z,8.43
2019-05-28T11:04:06.651Z,8.27
2019-05-28T11:06:48.848Z,3.93
2019-05-28T11:09:08.840Z,5.03
2019-05-28T11:11:37.571Z,3.23
2019-05-28T11:14:06.139Z,4.63
2019-05-28T11:16:34.567Z,4.00
2019-05-28T11:19:03.023Z,6.07
2019-05-28T11:21:31.565Z,4.20
2019-05-28T11:24:00.058Z,3.17
2019-05-28T11:26:28.613Z,6.33
2019-05-28T11:28:57.135Z,5.83
2019-05-28T11:31:25.599Z,4.07
2019-05-28T11:33:54.407Z,3.00
2019-05-28T11:36:23.043Z,5.07
2019-05-28T11:38:51.987Z,4.13
2019-05-28T11:41:20.521Z,4.80
2019-05-28T11:43:48.991Z,8.77
2019-05-28T11:46:17.538Z,7.03
2019-05-28T11:48:46.164Z,4.90
2019-05-28T11:51:14.926Z,5.90
2019-05-28T11:53:43.576Z,7.00
2019-05-28T11:56:12.015Z,5.90
2019-05-28T11:58:40.486Z,6.70
2019-05-28T12:01:09.017Z,5.10
2019-05-28T12:03:37.564Z,4.97
2019-05-28T12:06:06.050Z,6.63
2019-05-28T12:08:34.497Z,5.00
2019-05-28T12:11:03.123Z,6.33
2019-05-28T12:13:31.643Z,8.93
2019-05-28T12:16:00.208Z,9.00
2019-05-28T12:18:28.837Z,5.20
2019-05-28T12:20:57.282Z,12.73
2019-05-28T12:23:25.906Z,7.93
2019-05-28T12:25:54.421Z,8.20
2019-05-28T12:28:37.027Z,11.20
2019-05-28T12:30:53.138Z,10.10
2019-05-28T12:33:21.631Z,8.03
2019-05-28T12:35:50.170Z,11.03
2019-05-28T12:38:18.682Z,8.07
2019-05-28T12:40:48.577Z,10.50
2019-05-28T12:43:17.249Z,5.63
2019-05-28T12:45:45.794Z,8.10
2019-05-28T12:48:14.384Z,5.27
2019-05-28T12:50:42.818Z,3.90
2019-05-28T12:53:11.380Z,5.80
2019-05-28T12:55:39.919Z,5.33
2019-05-28T12:58:08.660Z,9.63
2019-05-28T13:00:37.261Z,8.90
2019-05-28T13:03:05.730Z,8.20
2019-05-28T13:05:34.194Z,11.80
2019-05-28T13:08:09.338Z,12.17
2019-05-28T13:10:32.938Z,13.83
2019-05-28T13:13:01.439Z,16.57
2019-05-28T13:15:29.929Z,13.13
2019-05-28T13:17:58.459Z,8.80
2019-05-28T13:20:27.028Z,8.67
2019-05-28T13:22:55.462Z,17.20
2019-05-28T13:25:24.037Z,47.53
2019-05-28T13:27:55.721Z,34.83
2019-05-28T13:30:24.281Z,16.87
2019-05-28T13:32:53.074Z,14.83
2019-05-28T13:35:21.847Z,14.57
2019-05-28T13:37:50.481Z,15.17
2019-05-28T13:40:18.954Z,14.40
2019-05-28T13:42:47.439Z,15.60
2019-05-28T13:45:15.924Z,16.37
2019-05-28T13:47:44.518Z,21.53
2019-05-28T13:50:13.010Z,21.77
2019-05-28T13:52:41.573Z,21.07
2019-05-28T13:55:10.498Z,19.87
2019-05-28T13:57:39.892Z,16.63
2019-05-28T14:00:10.106Z,16.90
2019-05-28T14:02:38.745Z,20.67
2019-05-28T14:05:07.676Z,17.00
2019-05-28T14:07:39.240Z,20.60
2019-05-28T14:10:08.135Z,20.27
2019-05-28T14:12:36.659Z,16.97
2019-05-28T14:15:08.437Z,27.90
2019-05-28T14:17:37.192Z,17.23
2019-05-28T14:20:06.560Z,17.73
2019-05-28T14:22:35.336Z,16.13
2019-05-28T14:25:05.437Z,16.43
2019-05-28T14:27:34.202Z,19.23
2019-05-28T14:30:02.869Z,19.87
2019-05-28T14:32:31.534Z,17.87
2019-05-28T14:35:00.128Z,24.47
2019-05-28T14:37:30.594Z,19.33
2019-05-28T14:39:59.133Z,16.97
2019-05-28T14:42:27.764Z,14.80
2019-05-28T14:44:56.380Z,10.23
2019-05-28T14:47:35.761Z,11.67
2019-05-28T14:50:07.086Z,9.27
2019-05-28T14:52:35.778Z,10.17
2019-05-28T14:55:07.916Z,15.77
2019-05-28T14:57:36.721Z,14.93
2019-05-28T15:00:08.905Z,17.67
2019-05-28T15:02:37.587Z,13.40
2019-05-28T15:05:10.101Z,13.67
2019-05-28T15:07:38.634Z,10.87
2019-05-28T15:10:07.777Z,9.70
2019-05-28T15:12:36.323Z,7.13
2019-05-28T15:15:06.833Z,7.47
2019-05-28T15:17:35.371Z,8.20
2019-05-28T15:20:06.503Z,10.23
2019-05-28T15:22:35.249Z,11.37
2019-05-28T15:25:07.617Z,9.17
2019-05-28T15:27:36.631Z,10.27
2019-05-28T15:30:10.971Z,13.00
2019-05-28T15:32:42.406Z,12.53
2019-05-28T15:35:11.370Z,13.93
2019-05-28T15:37:39.987Z,15.57
2019-05-28T15:40:08.936Z,13.80
2019-05-28T15:42:37.784Z,19.10
2019-05-28T15:45:08.172Z,17.63
2019-05-28T15:47:37.615Z,24.87
2019-05-28T15:50:07.494Z,25.20
2019-05-28T15:52:36.104Z,24.93
2019-05-28T15:55:06.189Z,22.47
2019-05-28T15:57:34.810Z,21.90
2019-05-28T16:00:04.859Z,24.80
2019-05-28T16:02:33.476Z,27.63
2019-05-28T16:05:02.061Z,26.10
2019-05-28T16:07:30.792Z,29.03
2019-05-28T16:09:59.590Z,30.07
2019-05-28T16:12:28.290Z,24.77
2019-05-28T16:14:56.747Z,23.13
2019-05-28T16:17:25.239Z,23.17
2019-05-28T16:19:55.386Z,27.47
2019-05-28T16:22:23.926Z,20.20
2019-05-28T16:24:52.423Z,28.30
2019-05-28T16:27:21.069Z,29.20
2019-05-28T16:29:49.671Z,32.83
2019-05-28T16:32:18.239Z,28.50
2019-05-28T16:34:46.752Z,28.60
2019-05-28T16:37:15.353Z,28.87
2019-05-28T16:39:47.327Z,22.90
2019-05-28T16:42:21.546Z,24.40
2019-05-28T16:44:49.994Z,20.97
2019-05-28T16:47:18.872Z,22.80
2019-05-28T16:49:47.598Z,18.97
2019-05-28T16:52:16.132Z,19.33
2019-05-28T16:54:44.767Z,23.90
2019-05-28T16:57:13.356Z,20.27
2019-05-28T16:59:41.819Z,23.43
2019-05-28T17:02:10.262Z,19.63
2019-05-28T17:04:38.912Z,17.03
2019-05-28T17:07:07.427Z,16.10
2019-05-28T17:09:35.911Z,18.03
2019-05-28T17:12:04.532Z,23.03
2019-05-28T17:14:33.023Z,18.80
2019-05-28T17:17:03.069Z,18.70
2019-05-28T17:19:31.759Z,27.40
2019-05-28T17:22:00.386Z,25.63
2019-05-28T17:24:28.848Z,28.43
2019-05-28T17:26:57.548Z,24.33
2019-05-28T17:29:28.118Z,25.90
2019-05-28T17:31:56.622Z,22.17
2019-05-28T17:34:25.063Z,18.20
2019-05-28T17:36:53.631Z,18.93
2019-05-28T17:39:24.551Z,20.60
2019-05-28T17:41:52.699Z,16.15
2019-05-28T17:44:21.626Z,16.17
2019-05-28T17:46:50.124Z,19.17
2019-05-28T17:49:19.639Z,17.83
2019-05-28T17:51:52.097Z,19.40
2019-05-28T17:54:20.561Z,23.60
2019-05-28T17:56:49.034Z,22.13
2019-05-28T17:59:17.867Z,24.83
2019-05-28T18:01:48.089Z,24.80
2019-05-28T18:04:16.621Z,23.70
2019-05-28T18:06:46.747Z,28.73
2019-05-28T18:09:15.221Z,24.53
2019-05-28T18:11:43.830Z,24.47
2019-05-28T18:14:12.462Z,37.63
2019-05-28T18:16:43.620Z,34.63
2019-05-28T18:19:12.870Z,35.87
2019-05-28T18:21:41.467Z,32.23
2019-05-28T18:24:10.122Z,33.90
2019-05-28T18:26:38.723Z,31.33
2019-05-28T18:29:07.419Z,31.83
2019-05-28T18:31:37.685Z,37.27
2019-05-28T18:34:14.975Z,27.00
2019-05-28T18:36:42.670Z,31.77
2019-05-28T18:39:11.366Z,29.07
2019-05-28T18:41:40.071Z,25.20
2019-05-28T18:44:10.850Z,24.03
2019-05-28T18:46:39.487Z,20.80
2019-05-28T18:49:25.213Z,22.90
2019-05-28T18:51:48.087Z,23.63
2019-05-28T18:54:16.634Z,25.90
2019-05-28T18:56:45.324Z,20.73
2019-05-28T18:59:13.908Z,22.83
2019-05-28T19:01:42.740Z,27.33
2019-05-28T19:04:11.425Z,24.70
2019-05-28T19:06:40.070Z,27.10
2019-05-28T19:09:11.810Z,18.83
2019-05-28T19:11:42.102Z,22.07
2019-05-28T19:14:12.547Z,19.40
2019-05-28T19:16:41.131Z,21.47
2019-05-28T19:19:11.522Z,21.57
2019-05-28T19:21:40.275Z,20.77
2019-05-28T19:24:13.922Z,20.60
2019-05-28T19:26:42.790Z,15.90
2019-05-28T19:29:11.311Z,14.70
2019-05-28T19:31:43.816Z,17.57
2019-05-28T19:34:12.151Z,13.83
2019-05-28T19:36:42.580Z,11.03
2019-05-28T19:39:11.192Z,13.90
2019-05-28T19:41:52.315Z,15.37
2019-05-28T19:44:09.989Z,14.17
2019-05-28T19:46:38.530Z,15.20
2019-05-28T19:49:09.918Z,18.80
2019-05-28T19:51:40.067Z,18.30
2019-05-28T19:54:08.750Z,17.53
2019-05-28T19:56:37.237Z,21.57
2019-05-28T19:59:06.010Z,17.40
2019-05-28T20:01:36.147Z,19.10
2019-05-28T20:04:06.373Z,20.87
2019-05-28T20:06:35.045Z,18.30
2019-05-28T20:09:05.370Z,22.50
2019-05-28T20:11:34.065Z,20.40
2019-05-28T20:14:05.744Z,20.53
2019-05-28T20:16:34.390Z,20.10
2019-05-28T20:19:04.675Z,22.17
2019-05-28T20:21:35.221Z,21.67
2019-05-28T20:24:03.471Z,21.90
2019-05-28T20:26:32.055Z,24.97
2019-05-28T20:29:08.274Z,26.83
2019-05-28T20:31:36.049Z,25.97
2019-05-28T20:34:05.308Z,26.87
2019-05-28T20:36:34.038Z,29.77
2019-05-28T20:39:03.850Z,30.43
2019-05-28T20:41:32.390Z,28.00
2019-05-28T20:44:00.914Z,31.23
2019-05-28T20:46:29.518Z,29.40
2019-05-28T20:48:57.950Z,27.70
2019-05-28T20:51:26.594Z,28.30
2019-05-28T20:53:55.146Z,30.37
2019-05-28T20:56:23.740Z,27.67
2019-05-28T20:58:52.446Z,29.73
2019-05-28T21:01:27.859Z,31.23
2019-05-28T21:06:32.220Z,26.97
2019-05-28T21:09:00.686Z,31.20
2019-05-28T21:11:29.392Z,28.67
2019-05-28T21:13:58.827Z,31.53
2019-05-28T21:16:27.634Z,29.53
2019-05-28T21:18:57.266Z,29.23
2019-05-28T21:21:25.949Z,28.20
2019-05-28T21:23:54.410Z,27.77
2019-05-28T21:26:23.045Z,30.90
2019-05-28T21:28:52.098Z,29.80
2019-05-28T21:31:20.856Z,27.83
2019-05-28T21:33:50.619Z,28.30
2019-05-28T21:36:19.357Z,27.57
2019-05-28T21:38:47.889Z,24.90
2019-05-28T21:41:16.518Z,28.50
2019-05-28T21:43:45.001Z,26.37
2019-05-28T21:46:17.807Z,30.53
2019-05-28T21:48:46.739Z,31.67
2019-05-28T21:51:15.376Z,31.80
2019-05-28T21:53:44.085Z,28.80
2019-05-28T21:56:12.630Z,31.23
2019-05-28T21:58:43.926Z,33.73
2019-05-28T22:01:18.207Z,31.30
2019-05-28T22:03:48.447Z,28.73
2019-05-28T22:06:16.957Z,33.67
2019-05-28T22:08:45.743Z,30.90
2019-05-28T22:11:14.334Z,31.03
2019-05-28T22:13:42.869Z,33.17
2019-05-28T22:16:11.443Z,33.93
2019-05-28T22:18:39.954Z,29.27
2019-05-28T22:21:08.587Z,30.27
2019-05-28T22:23:37.224Z,30.77
2019-05-28T22:26:05.707Z,29.53
2019-05-28T22:28:34.230Z,28.90
2019-05-28T22:31:03.840Z,29.63
2019-05-28T22:33:33.108Z,28.53
2019-05-28T22:36:01.738Z,29.87
2019-05-28T22:38:30.271Z,29.27
2019-05-28T22:40:58.857Z,31.00
2019-05-28T22:43:31.728Z,36.57
2019-05-28T22:45:57.562Z,33.97
2019-05-28T22:48:26.139Z,30.87
2019-05-28T22:50:54.854Z,36.13
2019-05-28T22:53:23.617Z,29.83
2019-05-28T22:55:52.199Z,27.63
2019-05-28T22:58:20.813Z,33.00
2019-05-28T23:00:49.491Z,26.60
2019-05-28T23:03:18.003Z,32.53
2019-05-28T23:05:46.455Z,31.23
2019-05-28T23:08:14.923Z,31.17
2019-05-28T23:10:43.491Z,31.47
2019-05-28T23:13:12.029Z,26.83
2019-05-28T23:15:40.527Z,26.63
2019-05-28T23:18:09.425Z,25.03
2019-05-28T23:20:39.312Z,22.23
2019-05-28T23:23:07.774Z,18.07
2019-05-28T23:25:36.290Z,20.20
2019-05-28T23:28:05.543Z,21.70
2019-05-28T23:30:34.321Z,14.70
2019-05-28T23:33:04.215Z,15.57
2019-05-28T23:35:33.051Z,18.73
2019-05-28T23:38:02.635Z,16.73
2019-05-28T23:40:31.387Z,14.33
2019-05-28T23:43:00.049Z,18.23
2019-05-28T23:45:28.529Z,17.07
2019-05-28T23:47:57.210Z,18.67
2019-05-28T23:50:25.786Z,18.73
2019-05-28T23:52:54.293Z,17.00
2019-05-28T23:55:22.857Z,16.27
2019-05-28T23:57:51.387Z,15.93
